SEAS weather

Ascazubi Airport
Ascazubi, Pichincha Province, Ecuador

Public forecast

Using degrees Celsius for public forecast. Weather courtesy of forecast.io.

Closest aviation weather report (METAR) to Ascazubi Airport

Closest report is Mariscal Sucre International Airport, 5.2 nm (9.7 km) WSW. Retrieved 2020/08/04 14:00 UTC (37 minutes ago):

SEQM 041400Z 23004KT 190V350 9999 FEW100 BKN300 18/03 Q1029 NOSIG RMK A3039

Closest aviation forecast (TAF) to Ascazubi Airport

Closest forecast is Mariscal Sucre International Airport, 5.2 nm (9.7 km) WSW. Retrieved 2020/08/04 12:45 UTC (2 hours ago):

TAF SEQM 041020Z 0412/0512 15006KT 9999 FEW030 SCT300 BECMG 0417/0419 02012KT FEW040 BECMG 0423/0501 12006KT SCT033 BECMG 0504/0506 VRB03KT CAVOK TX26/0419Z TN06/0511Z